Time;durP1;ratioP1;P1;durP2;ratioP2;P2;SDS_P1;SDS_P2;PMS_P1;PMS_P2;Temp;Humidity;BMP_temperature;BMP_pressure;BME280_temperature;BME280_humidity;BME280_pressure;Samples;Min_cycle;Max_cycle;Signal;HPM_P1;HPM_P2
2022/08/25 00:01:36;;;;;;;15.70;11.50;;;23.60;52.80;;;;;;5053376;28;20428;-43
2022/08/25 00:04:05;;;;;;;15.53;10.57;;;23.60;52.80;;;;;;5053139;28;20918;-43
2022/08/25 00:06:31;;;;;;;11.57;9.30;;;23.60;52.80;;;;;;5053161;28;20425;-44
2022/08/25 00:08:58;;;;;;;15.80;11.97;;;23.60;52.90;;;;;;5053022;28;20450;-43
2022/08/25 00:11:27;;;;;;;13.43;10.60;;;23.50;52.90;;;;;;5052852;28;20950;-44
2022/08/25 00:13:59;;;;;;;12.20;10.83;;;23.50;52.90;;;;;;5052532;28;20435;-43
2022/08/25 00:16:26;;;;;;;13.83;10.20;;;23.50;52.90;;;;;;5052869;28;20438;-43
2022/08/25 00:18:57;;;;;;;14.57;11.03;;;23.40;52.70;;;;;;5053122;28;20806;-43
2022/08/25 00:21:24;;;;;;;16.43;12.40;;;23.40;52.70;;;;;;5052921;28;20400;-43
2022/08/25 00:23:50;;;;;;;13.70;11.03;;;23.40;52.90;;;;;;5052624;28;20443;-44
2022/08/25 00:26:16;;;;;;;16.60;12.17;;;23.40;52.90;;;;;;5052615;28;20415;-44
2022/08/25 00:28:43;;;;;;;13.80;10.53;;;23.30;53.00;;;;;;5053017;28;20411;-43
2022/08/25 00:31:15;;;;;;;13.80;11.00;;;23.40;52.90;;;;;;5053000;28;20448;-44
2022/08/25 00:33:44;;;;;;;18.43;12.90;;;23.30;52.80;;;;;;5053455;28;20518;-44
2022/08/25 00:36:11;;;;;;;15.90;11.50;;;23.30;52.80;;;;;;5052910;28;20396;-44
2022/08/25 00:38:41;;;;;;;14.70;11.20;;;23.30;52.90;;;;;;5052740;28;20404;-43
2022/08/25 00:41:10;;;;;;;14.40;11.57;;;23.20;52.90;;;;;;5052858;28;20419;-43
2022/08/25 00:43:46;;;;;;;14.50;12.03;;;23.20;53.00;;;;;;5052428;28;20428;-43
2022/08/25 00:46:19;;;;;;;14.83;11.90;;;23.20;53.00;;;;;;5052199;28;20415;-44
2022/08/25 00:48:49;;;;;;;12.13;10.83;;;23.20;53.00;;;;;;5052502;28;20384;-43
2022/08/25 00:51:34;;;;;;;11.20;10.10;;;23.20;53.00;;;;;;5052573;28;20439;-43
2022/08/25 00:54:01;;;;;;;13.87;11.53;;;23.20;53.00;;;;;;5052456;28;20778;-43
2022/08/25 00:56:28;;;;;;;20.03;11.53;;;23.20;52.90;;;;;;5034220;28;20757;-43
2022/08/25 00:58:55;;;;;;;14.27;11.53;;;23.20;52.90;;;;;;5052733;28;20449;-43
2022/08/25 01:01:21;;;;;;;15.90;10.87;;;23.20;53.00;;;;;;5052433;28;20802;-43
2022/08/25 01:03:47;;;;;;;11.83;9.63;;;23.20;53.00;;;;;;5052376;28;20434;-43
2022/08/25 01:06:14;;;;;;;15.57;11.60;;;23.10;53.00;;;;;;5052155;28;20619;-43
2022/08/25 01:08:40;;;;;;;15.43;12.93;;;23.10;52.90;;;;;;5034286;28;20428;-44
2022/08/25 01:11:09;;;;;;;12.90;10.03;;;23.10;53.00;;;;;;5051944;28;20474;-44
2022/08/25 01:13:41;;;;;;;10.93;9.70;;;23.10;53.00;;;;;;5051872;28;20435;-44
2022/08/25 01:16:07;;;;;;;16.23;12.90;;;23.10;53.00;;;;;;5051772;28;20395;-43
2022/08/25 01:18:55;;;;;;;11.07;9.97;;;23.10;53.00;;;;;;5051996;28;20403;-44
2022/08/25 01:21:24;;;;;;;13.67;11.70;;;23.00;52.80;;;;;;5052151;28;20625;-44
2022/08/25 01:23:51;;;;;;;16.90;10.40;;;23.00;52.70;;;;;;5053806;28;20520;-44
2022/08/25 01:26:19;;;;;;;13.70;11.23;;;23.00;52.80;;;;;;5038098;28;20477;-43
2022/08/25 01:31:32;;;;;;;14.23;11.00;;;23.00;52.90;;;;;;5056195;28;20447;-44
2022/08/25 01:33:59;;;;;;;12.40;11.13;;;22.90;53.00;;;;;;5055949;28;20438;-43
2022/08/25 01:36:27;;;;;;;15.50;11.73;;;22.90;52.90;;;;;;5056037;28;20477;-43
2022/08/25 01:38:54;;;;;;;20.60;11.73;;;22.90;53.00;;;;;;5055997;28;20469;-44
2022/08/25 01:41:45;;;;;;;11.80;10.37;;;22.90;53.00;;;;;;5055902;28;21084;-44
2022/08/25 01:44:11;;;;;;;14.30;11.20;;;22.90;53.10;;;;;;5056007;28;20428;-44
2022/08/25 01:46:37;;;;;;;15.80;12.10;;;22.80;53.30;;;;;;5055533;28;20728;-43
2022/08/25 01:49:03;;;;;;;15.80;10.83;;;22.80;53.60;;;;;;5055868;28;20411;-43
2022/08/25 01:51:37;;;;;;;13.37;11.27;;;22.80;53.60;;;;;;5055727;28;20534;-43
2022/08/25 01:54:03;;;;;;;15.50;11.50;;;22.80;53.70;;;;;;5055651;28;20523;-43
2022/08/25 01:56:28;;;;;;;14.83;10.23;;;22.90;53.90;;;;;;5055370;28;20487;-43
2022/08/25 01:58:55;;;;;;;14.60;10.83;;;22.90;53.90;;;;;;5055391;28;20499;-43
2022/08/25 02:01:23;;;;;;;13.47;11.43;;;22.90;54.00;;;;;;5037638;28;20555;-42
2022/08/25 02:03:50;;;;;;;16.73;12.60;;;22.90;53.80;;;;;;5055384;28;20466;-43
2022/08/25 02:06:23;;;;;;;11.97;9.90;;;23.00;53.80;;;;;;5055224;28;20910;-43
2022/08/25 02:08:55;;;;;;;15.10;11.20;;;23.00;53.90;;;;;;5055385;28;20395;-43
2022/08/25 02:11:22;;;;;;;13.03;9.70;;;23.00;53.80;;;;;;5037346;28;20487;-43
2022/08/25 02:13:48;;;;;;;20.33;14.07;;;23.00;53.80;;;;;;5055123;28;20424;-43
2022/08/25 02:16:19;;;;;;;12.90;10.87;;;23.00;53.90;;;;;;5054913;28;20411;-43
2022/08/25 02:18:46;;;;;;;16.70;10.83;;;23.00;53.80;;;;;;5055281;28;20396;-43
2022/08/25 02:21:13;;;;;;;12.47;10.23;;;23.00;53.60;;;;;;5055251;28;20915;-43
2022/08/25 02:23:40;;;;;;;13.43;9.17;;;23.10;53.80;;;;;;5055009;28;20971;-43
2022/08/25 02:26:07;;;;;;;15.70;9.57;;;23.00;53.70;;;;;;5054845;28;20415;-43
2022/08/25 02:28:33;;;;;;;14.13;9.50;;;23.00;53.80;;;;;;5055006;28;20473;-43
2022/08/25 02:30:59;;;;;;;10.57;9.30;;;23.00;53.80;;;;;;5055107;28;20455;-43
2022/08/25 02:33:25;;;;;;;14.70;11.83;;;22.90;53.70;;;;;;5054926;28;20201;-44
2022/08/25 02:35:51;;;;;;;12.43;9.70;;;23.00;53.70;;;;;;5054203;28;20410;-43
2022/08/25 02:38:17;;;;;;;12.13;10.27;;;23.00;53.70;;;;;;5054821;28;20835;-43
2022/08/25 02:40:43;;;;;;;14.40;9.63;;;22.90;53.80;;;;;;5054912;28;20412;-43
2022/08/25 02:43:09;;;;;;;16.43;11.47;;;22.90;53.80;;;;;;5054601;28;20193;-43
2022/08/25 02:45:35;;;;;;;12.90;10.90;;;22.90;53.90;;;;;;5036796;28;20407;-43
2022/08/25 02:48:02;;;;;;;12.10;9.50;;;22.90;54.00;;;;;;5054778;28;20415;-43
2022/08/25 02:50:28;;;;;;;13.43;10.23;;;22.90;54.00;;;;;;5054798;28;20513;-43
2022/08/25 02:52:54;;;;;;;17.30;10.47;;;22.90;54.10;;;;;;5054423;28;20439;-43
2022/08/25 02:55:20;;;;;;;13.50;10.80;;;22.90;54.30;;;;;;5054473;28;20415;-43
2022/08/25 02:57:47;;;;;;;13.03;9.30;;;23.00;54.30;;;;;;5054113;28;20724;-43
2022/08/25 03:00:15;;;;;;;19.37;11.10;;;23.00;54.20;;;;;;5054661;28;20465;-43
2022/08/25 03:02:41;;;;;;;12.43;11.07;;;23.00;54.30;;;;;;5054443;28;20412;-43
2022/08/25 03:05:08;;;;;;;12.53;10.77;;;23.10;54.50;;;;;;5054435;28;20891;-43
2022/08/25 03:07:36;;;;;;;12.20;10.90;;;23.10;54.50;;;;;;5054712;28;20412;-43
2022/08/25 03:10:14;;;;;;;15.80;10.60;;;23.10;54.60;;;;;;5054447;28;20411;-43
2022/08/25 03:12:40;;;;;;;15.20;11.23;;;23.10;54.60;;;;;;5054331;28;20472;-43
2022/08/25 03:15:08;;;;;;;14.13;10.87;;;23.10;54.70;;;;;;5054141;28;20408;-43
2022/08/25 03:17:34;;;;;;;13.20;11.20;;;23.10;54.70;;;;;;5054365;28;20537;-43
2022/08/25 03:19:59;;;;;;;13.17;9.50;;;23.10;54.60;;;;;;5054070;28;20914;-43
2022/08/25 03:22:25;;;;;;;14.70;10.60;;;23.10;54.60;;;;;;5053904;28;20412;-43
2022/08/25 03:24:51;;;;;;;14.33;11.20;;;23.10;54.60;;;;;;5053653;28;20263;-43
2022/08/25 03:27:17;;;;;;;13.43;9.57;;;23.10;54.70;;;;;;5053830;28;20192;-43
2022/08/25 03:29:42;;;;;;;16.47;10.27;;;23.10;54.50;;;;;;5053844;28;20199;-43
2022/08/25 03:32:08;;;;;;;14.00;10.40;;;23.10;54.60;;;;;;5053897;28;20597;-43
2022/08/25 03:34:34;;;;;;;17.57;11.10;;;23.10;54.70;;;;;;5053664;28;20189;-43
2022/08/25 03:37:01;;;;;;;12.20;9.40;;;23.10;54.70;;;;;;5053457;28;20794;-43
2022/08/25 03:39:27;;;;;;;16.47;11.07;;;23.10;54.70;;;;;;5053914;28;20184;-43
2022/08/25 03:41:53;;;;;;;16.93;10.33;;;23.10;54.70;;;;;;5053616;28;20416;-43
2022/08/25 03:44:20;;;;;;;16.00;11.20;;;23.20;54.80;;;;;;5053548;28;20481;-43
2022/08/25 03:46:50;;;;;;;12.10;9.87;;;23.20;54.80;;;;;;5052600;28;20181;-43
2022/08/25 03:49:21;;;;;;;10.97;9.37;;;23.20;54.70;;;;;;5053424;28;20427;-43
2022/08/25 03:51:49;;;;;;;25.37;10.83;;;23.20;54.70;;;;;;5053335;28;20498;-43
2022/08/25 03:54:20;;;;;;;12.77;9.80;;;23.20;54.70;;;;;;5053475;28;20432;-43
2022/08/25 03:56:45;;;;;;;16.27;11.70;;;23.20;54.70;;;;;;5053006;28;20772;-43
2022/08/25 03:59:12;;;;;;;14.27;11.23;;;23.10;54.70;;;;;;5053562;28;20418;-43
2022/08/25 04:01:40;;;;;;;19.50;11.50;;;23.10;54.70;;;;;;5053339;28;20251;-43
2022/08/25 04:04:07;;;;;;;12.70;10.43;;;23.10;54.60;;;;;;5053115;28;20428;-43
2022/08/25 04:06:33;;;;;;;14.33;9.97;;;23.10;54.60;;;;;;5052928;28;20507;-43
2022/08/25 04:08:59;;;;;;;11.27;9.23;;;23.10;54.50;;;;;;5053202;28;20427;-42
2022/08/25 04:11:27;;;;;;;17.37;10.90;;;23.10;54.40;;;;;;5053106;28;20448;-43
2022/08/25 04:13:56;;;;;;;12.07;10.03;;;23.00;54.30;;;;;;5052907;28;20232;-43
2022/08/25 04:16:29;;;;;;;13.50;9.93;;;23.00;54.30;;;;;;5052657;28;20404;-43
2022/08/25 04:18:55;;;;;;;14.27;10.70;;;23.00;54.30;;;;;;5053075;28;20404;-43
2022/08/25 04:21:22;;;;;;;11.47;10.20;;;22.90;54.30;;;;;;5034868;28;20416;-43
2022/08/25 04:23:48;;;;;;;23.00;10.90;;;23.00;54.30;;;;;;5052648;28;20456;-43
2022/08/25 04:26:15;;;;;;;13.90;11.17;;;22.90;54.30;;;;;;5034702;28;20908;-43
2022/08/25 04:28:41;;;;;;;10.77;8.97;;;22.90;54.20;;;;;;5035072;28;20419;-43
2022/08/25 04:31:09;;;;;;;11.93;10.63;;;22.90;54.10;;;;;;5052587;28;20451;-43
2022/08/25 04:33:37;;;;;;;15.20;11.23;;;22.90;54.10;;;;;;5052580;28;20849;-43
2022/08/25 04:36:04;;;;;;;14.30;9.97;;;22.90;54.00;;;;;;5034715;28;20427;-43
2022/08/25 04:38:31;;;;;;;13.93;10.33;;;22.90;54.20;;;;;;5052875;28;20412;-43
2022/08/25 04:41:02;;;;;;;15.70;10.27;;;22.90;54.30;;;;;;5052979;28;20407;-43
2022/08/25 04:43:30;;;;;;;11.53;8.90;;;22.90;54.30;;;;;;5052350;28;20432;-43
2022/08/25 04:45:56;;;;;;;10.67;9.57;;;22.80;54.30;;;;;;5052694;28;20513;-43
2022/08/25 04:48:22;;;;;;;12.60;9.97;;;22.90;54.30;;;;;;5052614;28;20499;-43
2022/08/25 04:50:48;;;;;;;12.23;10.60;;;22.90;54.40;;;;;;5052447;28;20541;-43
2022/08/25 04:53:15;;;;;;;13.70;10.27;;;22.90;54.50;;;;;;5052209;28;20509;-43
2022/08/25 04:55:42;;;;;;;14.60;10.60;;;22.90;54.40;;;;;;5052113;28;20173;-44
2022/08/25 04:58:08;;;;;;;12.40;9.90;;;22.90;54.40;;;;;;5051832;28;20401;-43
2022/08/25 05:00:35;;;;;;;16.30;10.27;;;22.90;54.50;;;;;;5052520;28;20909;-43
2022/08/25 05:03:02;;;;;;;13.00;11.47;;;22.90;54.40;;;;;;5052855;28;20970;-43
2022/08/25 05:05:29;;;;;;;13.40;11.20;;;22.90;54.50;;;;;;5052325;28;20424;-43
2022/08/25 05:07:55;;;;;;;17.47;11.03;;;22.90;54.60;;;;;;5052102;28;20491;-43
2022/08/25 05:10:21;;;;;;;16.87;13.10;;;22.90;54.60;;;;;;5052035;28;20817;-43
2022/08/25 05:12:46;;;;;;;16.47;12.47;;;22.90;54.80;;;;;;5051977;28;20846;-43
2022/08/25 05:17:56;;;;;;;16.50;12.10;;;22.90;55.20;;;;;;5052579;28;20650;-43
2022/08/25 05:20:23;;;;;;;13.43;10.87;;;23.00;55.10;;;;;;5051908;28;20408;-43
2022/08/25 05:22:49;;;;;;;15.73;12.43;;;23.00;55.20;;;;;;5051959;28;20203;-43
2022/08/25 05:25:15;;;;;;;13.43;11.40;;;23.10;55.30;;;;;;5051874;28;20411;-43
2022/08/25 05:27:41;;;;;;;14.50;11.27;;;23.10;55.40;;;;;;5052285;28;20227;-43
2022/08/25 05:30:11;;;;;;;12.60;11.23;;;23.20;55.40;;;;;;5052135;28;20418;-43
2022/08/25 05:32:37;;;;;;;13.53;11.90;;;23.30;55.40;;;;;;5052026;28;20505;-43
2022/08/25 05:35:04;;;;;;;16.30;11.70;;;23.30;55.40;;;;;;5052112;28;20888;-44
2022/08/25 05:37:30;;;;;;;16.50;11.53;;;23.30;55.40;;;;;;5051597;28;20404;-43
2022/08/25 05:39:56;;;;;;;14.53;11.80;;;23.40;55.30;;;;;;5051755;28;20502;-43
2022/08/25 05:42:22;;;;;;;13.13;11.73;;;23.40;55.20;;;;;;5051706;28;20753;-42
2022/08/25 05:44:48;;;;;;;14.97;11.37;;;23.50;55.30;;;;;;5051675;28;20196;-43
2022/08/25 05:47:14;;;;;;;15.93;11.90;;;23.50;55.40;;;;;;5051330;28;20428;-44
2022/08/25 05:49:39;;;;;;;11.80;9.87;;;23.60;55.20;;;;;;5051702;28;20423;-45
2022/08/25 05:52:05;;;;;;;15.33;11.43;;;23.70;55.20;;;;;;5051498;28;20279;-45
2022/08/25 05:54:31;;;;;;;16.20;11.00;;;23.80;55.10;;;;;;5051465;28;20725;-44
2022/08/25 05:56:58;;;;;;;14.37;10.63;;;23.90;55.10;;;;;;5051256;28;20239;-42
2022/08/25 05:59:23;;;;;;;17.40;12.40;;;23.90;55.00;;;;;;5051636;28;20490;-44
2022/08/25 06:04:33;;;;;;;14.60;11.37;;;24.10;54.80;;;;;;5051460;28;20208;-45
2022/08/25 06:06:59;;;;;;;15.33;12.30;;;24.10;54.80;;;;;;5051227;28;20412;-43
2022/08/25 06:09:25;;;;;;;14.93;11.30;;;24.20;54.70;;;;;;5051393;28;20414;-43
2022/08/25 06:11:51;;;;;;;17.77;11.67;;;24.20;54.60;;;;;;5054497;28;20489;-44
2022/08/25 06:14:18;;;;;;;15.30;12.73;;;24.30;54.60;;;;;;5055133;28;20431;-43
2022/08/25 06:16:44;;;;;;;18.17;12.67;;;24.30;54.20;;;;;;5054927;28;20427;-45
2022/08/25 06:19:10;;;;;;;17.47;13.10;;;24.30;54.20;;;;;;5054929;28;20895;-43
2022/08/25 06:21:39;;;;;;;13.50;12.10;;;24.40;55.00;;;;;;5055275;28;20414;-43
2022/08/25 06:24:06;;;;;;;20.50;12.23;;;24.40;54.20;;;;;;5054761;28;20683;-44
2022/08/25 06:26:33;;;;;;;17.63;10.83;;;24.40;54.20;;;;;;5054964;28;20420;-44
2022/08/25 06:28:59;;;;;;;16.93;12.10;;;24.50;54.30;;;;;;5054944;28;20418;-44
2022/08/25 06:31:25;;;;;;;21.37;14.47;;;24.50;54.10;;;;;;5054800;28;20481;-43
2022/08/25 06:33:51;;;;;;;16.37;14.00;;;24.60;53.90;;;;;;5054615;28;20215;-43
2022/08/25 06:36:18;;;;;;;16.63;12.67;;;24.60;53.70;;;;;;5054841;28;20411;-43
2022/08/25 06:38:44;;;;;;;17.97;14.07;;;24.50;53.70;;;;;;5054955;28;20408;-43
2022/08/25 06:41:11;;;;;;;17.33;13.70;;;24.60;53.80;;;;;;5054634;28;20448;-43
2022/08/25 06:43:39;;;;;;;20.87;14.83;;;24.60;53.80;;;;;;5054480;28;20439;-42
2022/08/25 06:46:13;;;;;;;20.37;15.03;;;24.60;53.90;;;;;;5054431;28;20771;-43
2022/08/25 06:48:40;;;;;;;15.00;13.27;;;24.70;54.10;;;;;;5054533;28;20422;-43
2022/08/25 06:51:12;;;;;;;21.70;15.07;;;24.80;53.90;;;;;;5054601;28;20447;-42
2022/08/25 06:53:38;;;;;;;17.80;13.03;;;24.90;53.90;;;;;;5054559;28;20428;-42
2022/08/25 06:56:04;;;;;;;17.23;15.07;;;24.90;53.70;;;;;;5054422;28;21014;-42
2022/08/25 06:58:31;;;;;;;18.40;12.70;;;25.00;53.70;;;;;;5054436;28;20162;-43
2022/08/25 07:01:07;;;;;;;25.03;14.50;;;25.00;53.70;;;;;;5055119;28;20880;-43
2022/08/25 07:03:32;;;;;;;16.60;13.63;;;25.20;53.60;;;;;;5056096;28;20431;-43
2022/08/25 07:05:58;;;;;;;16.43;12.27;;;25.30;53.70;;;;;;5054762;28;20913;-42
2022/08/25 07:08:25;;;;;;;17.90;13.50;;;25.40;53.70;;;;;;5054314;28;20219;-43
2022/08/25 07:10:51;;;;;;;20.80;14.87;;;25.50;53.60;;;;;;5054142;28;20911;-45
2022/08/25 07:13:17;;;;;;;18.90;15.03;;;25.60;53.40;;;;;;5054048;28;20462;-44
2022/08/25 07:15:43;;;;;;;16.10;14.10;;;25.60;52.80;;;;;;5053955;28;20531;-44
2022/08/25 07:18:13;;;;;;;17.67;14.30;;;25.60;52.60;;;;;;5053933;28;20463;-45
2022/08/25 07:20:39;;;;;;;20.93;14.63;;;25.60;52.70;;;;;;5054144;28;20434;-43
2022/08/25 07:23:06;;;;;;;16.90;15.00;;;25.70;53.10;;;;;;5053457;28;20526;-45
2022/08/25 07:25:33;;;;;;;20.27;16.00;;;25.70;53.20;;;;;;5053780;28;20406;-44
2022/08/25 07:28:00;;;;;;;20.17;16.03;;;25.90;53.10;;;;;;5053739;28;20465;-43
2022/08/25 07:30:26;;;;;;;19.77;16.37;;;25.80;52.50;;;;;;5053736;28;20439;-43
2022/08/25 07:32:52;;;;;;;25.53;16.50;;;25.80;52.40;;;;;;5053556;28;20456;-44
2022/08/25 07:35:22;;;;;;;20.03;15.60;;;25.80;52.90;;;;;;5053570;28;20511;-43
2022/08/25 07:37:50;;;;;;;26.57;15.13;;;25.80;52.90;;;;;;5053539;28;20772;-45
2022/08/25 07:40:24;;;;;;;21.83;14.83;;;25.90;53.00;;;;;;5053543;28;20408;-44
2022/08/25 07:42:53;;;;;;;27.10;16.63;;;26.00;53.40;;;;;;5053475;28;20427;-44
2022/08/25 07:45:24;;;;;;;21.63;17.20;;;26.10;53.30;;;;;;5053494;28;20948;-44
2022/08/25 07:47:52;;;;;;;21.93;15.60;;;26.20;53.20;;;;;;5053295;28;20880;-44
2022/08/25 07:50:19;;;;;;;28.40;16.93;;;26.20;53.20;;;;;;5053413;28;20470;-43
2022/08/25 07:52:45;;;;;;;20.40;17.60;;;26.30;52.80;;;;;;5053287;28;20452;-43
2022/08/25 07:55:11;;;;;;;21.47;14.80;;;26.20;52.80;;;;;;5053446;28;20411;-44
2022/08/25 07:57:39;;;;;;;22.33;16.27;;;26.30;52.80;;;;;;5053098;28;20411;-44
2022/08/25 08:00:06;;;;;;;17.97;15.13;;;26.30;52.50;;;;;;5053235;28;20166;-44
2022/08/25 08:02:32;;;;;;;21.03;14.33;;;26.30;52.60;;;;;;5053165;28;20420;-43
2022/08/25 08:04:58;;;;;;;19.10;15.80;;;26.50;52.80;;;;;;5053334;28;20411;-44
2022/08/25 08:07:25;;;;;;;19.47;15.00;;;26.60;52.60;;;;;;5053094;28;20598;-44
2022/08/25 08:09:52;;;;;;;20.07;14.27;;;26.70;52.60;;;;;;5053061;28;20400;-44
2022/08/25 08:12:18;;;;;;;21.73;15.80;;;26.80;52.40;;;;;;5052852;28;20963;-44
2022/08/25 08:14:44;;;;;;;20.27;15.77;;;27.00;53.00;;;;;;5052872;28;20539;-44
2022/08/25 08:17:11;;;;;;;20.00;15.20;;;27.00;52.50;;;;;;5052584;28;20412;-44
2022/08/25 08:19:37;;;;;;;21.20;15.93;;;27.20;52.10;;;;;;5052760;28;20412;-44
2022/08/25 08:22:04;;;;;;;22.10;13.33;;;27.20;52.00;;;;;;5052677;28;20466;-44
2022/08/25 08:24:31;;;;;;;20.33;14.50;;;27.30;51.90;;;;;;5052641;28;20247;-44
2022/08/25 08:26:57;;;;;;;17.50;14.10;;;27.40;52.50;;;;;;5052495;28;20412;-44
2022/08/25 08:29:23;;;;;;;19.97;15.60;;;27.50;52.20;;;;;;5052649;28;20466;-43
2022/08/25 08:31:49;;;;;;;38.60;19.00;;;27.60;51.90;;;;;;5052529;28;20443;-43
2022/08/25 08:34:15;;;;;;;22.23;16.77;;;27.80;50.10;;;;;;5051963;28;20216;-43
2022/08/25 08:36:41;;;;;;;21.23;15.53;;;27.70;49.90;;;;;;5052355;28;20696;-43
2022/08/25 08:39:07;;;;;;;21.20;15.97;;;27.70;50.30;;;;;;5052453;28;20490;-43
2022/08/25 08:44:33;;;;;;;21.17;16.10;;;27.70;50.10;;;;;;5052440;28;20511;-44
2022/08/25 08:47:20;;;;;;;19.50;15.30;;;27.70;50.30;;;;;;5052389;28;20408;-43
2022/08/25 08:50:05;;;;;;;20.13;14.27;;;27.70;50.50;;;;;;5052473;28;20895;-44
2022/08/25 08:52:48;;;;;;;16.77;13.73;;;27.70;50.70;;;;;;5052119;28;20458;-42
2022/08/25 08:55:29;;;;;;;21.07;13.50;;;27.80;51.00;;;;;;5052305;28;20408;-42
2022/08/25 08:57:58;;;;;;;19.67;14.63;;;27.90;51.20;;;;;;5052129;28;20396;-42
2022/08/25 09:00:25;;;;;;;20.90;14.93;;;28.10;50.90;;;;;;5052256;28;20895;-43
2022/08/25 09:03:15;;;;;;;16.50;14.77;;;28.20;50.70;;;;;;5052043;28;20431;-42
2022/08/25 09:05:47;;;;;;;16.93;13.80;;;28.30;50.50;;;;;;5051951;28;20469;-42
2022/08/25 09:08:15;;;;;;;16.97;13.90;;;28.30;50.40;;;;;;5051992;28;20510;-43
2022/08/25 09:10:53;;;;;;;16.40;13.10;;;28.30;50.50;;;;;;5052119;28;20404;-43
2022/08/25 09:13:19;;;;;;;15.67;13.27;;;28.40;50.50;;;;;;5052212;28;20514;-42
2022/08/25 09:19:25;;;;;;;16.07;12.40;;;28.40;50.60;;;;;;5051996;28;20161;-42
2022/08/25 09:22:14;;;;;;;21.63;13.37;;;28.40;50.30;;;;;;5051974;28;20434;-42
2022/08/25 09:25:03;;;;;;;15.77;13.33;;;28.50;50.40;;;;;;5051765;28;20439;-42
2022/08/25 09:27:38;;;;;;;13.20;10.43;;;28.60;50.70;;;;;;5041257;28;20477;-42
2022/08/25 09:30:14;;;;;;;14.43;12.97;;;28.70;50.20;;;;;;5051705;28;21013;-42
2022/08/25 09:32:43;;;;;;;17.50;12.30;;;28.80;50.00;;;;;;5051731;28;20451;-42
2022/08/25 09:35:17;;;;;;;13.80;12.50;;;28.80;50.10;;;;;;5051726;28;20403;-42
2022/08/25 09:37:54;;;;;;;12.87;11.60;;;28.90;49.80;;;;;;5051745;28;20450;-42
2022/08/25 09:40:20;;;;;;;16.20;12.27;;;29.00;50.20;;;;;;5051860;28;20403;-43
2022/08/25 09:42:53;;;;;;;20.93;12.57;;;29.00;50.10;;;;;;5051951;28;20411;-42
2022/08/25 09:45:33;;;;;;;18.00;13.20;;;29.00;49.60;;;;;;5052559;28;20895;-42
2022/08/25 09:47:59;;;;;;;16.33;13.57;;;29.00;49.70;;;;;;5055913;28;20420;-43
2022/08/25 09:50:31;;;;;;;13.97;12.47;;;28.90;49.00;;;;;;5055781;28;20400;-43
2022/08/25 09:53:14;;;;;;;16.33;12.37;;;28.90;49.00;;;;;;5055623;28;20459;-42
2022/08/25 09:55:43;;;;;;;24.90;12.20;;;28.90;49.20;;;;;;5055680;28;20395;-42
2022/08/25 09:58:18;;;;;;;18.90;12.83;;;29.10;50.20;;;;;;5055484;28;20461;-43
2022/08/25 10:00:45;;;;;;;14.53;12.40;;;29.20;50.30;;;;;;5055760;28;20395;-43
2022/08/25 10:03:30;;;;;;;14.90;11.00;;;29.30;50.10;;;;;;5055749;28;20889;-43
2022/08/25 10:05:56;;;;;;;14.90;11.27;;;29.40;49.40;;;;;;5055460;28;21033;-43
2022/08/25 10:08:31;;;;;;;10.80;9.50;;;29.50;49.70;;;;;;5055740;28;20405;-43
2022/08/25 10:11:00;;;;;;;16.40;10.53;;;29.60;49.50;;;;;;5055676;28;20400;-41
2022/08/25 10:13:59;;;;;;;20.43;11.03;;;29.70;49.50;;;;;;5055398;28;20429;-42
2022/08/25 10:16:31;;;;;;;15.70;9.23;;;29.80;49.20;;;;;;5054828;28;20400;-42
2022/08/25 10:19:05;;;;;;;13.20;7.63;;;29.80;48.70;;;;;;5055078;28;20901;-42
2022/08/25 10:21:31;;;;;;;14.17;8.67;;;29.90;48.00;;;;;;5055368;28;20396;-42
2022/08/25 10:24:00;;;;;;;14.70;7.80;;;29.90;48.40;;;;;;5054915;28;20448;-42
2022/08/25 10:26:44;;;;;;;15.20;7.87;;;29.80;47.60;;;;;;5054696;28;20423;-43
2022/08/25 10:29:41;;;;;;;15.03;7.60;;;29.80;47.30;;;;;;5054964;28;20395;-43
2022/08/25 10:32:27;;;;;;;10.00;7.87;;;29.80;47.20;;;;;;5054722;28;20486;-41
2022/08/25 10:34:56;;;;;;;21.90;8.80;;;29.80;47.90;;;;;;5054868;28;20422;-42
2022/08/25 10:37:48;;;;;;;15.80;7.60;;;29.80;47.50;;;;;;5054883;28;20429;-42
2022/08/25 10:40:31;;;;;;;18.03;6.33;;;29.90;46.70;;;;;;5054767;28;20400;-41
2022/08/25 10:43:05;;;;;;;13.70;7.50;;;29.90;47.10;;;;;;5054727;28;20420;-42
2022/08/25 10:45:43;;;;;;;21.87;8.00;;;29.80;47.20;;;;;;5054945;28;20401;-42
2022/08/25 10:48:27;;;;;;;15.00;7.40;;;29.80;47.20;;;;;;5054802;28;20430;-43
2022/08/25 10:51:26;;;;;;;20.50;8.07;;;29.80;47.10;;;;;;5054908;28;20762;-43
2022/08/25 10:54:13;;;;;;;21.67;8.90;;;29.80;46.50;;;;;;5054692;28;20436;-43
2022/08/25 10:56:55;;;;;;;24.83;9.20;;;29.90;47.40;;;;;;5054360;28;20491;-43
2022/08/25 10:59:40;;;;;;;15.33;7.80;;;30.00;48.10;;;;;;5054770;28;20464;-43
2022/08/25 11:02:29;;;;;;;10.43;6.53;;;30.20;47.70;;;;;;5054585;28;20963;-43
2022/08/25 11:05:07;;;;;;;13.13;8.20;;;30.20;47.00;;;;;;5043812;28;20778;-43
2022/08/25 11:07:48;;;;;;;13.20;7.73;;;30.30;47.20;;;;;;5055010;28;20390;-43
2022/08/25 11:10:26;;;;;;;17.00;8.03;;;30.50;47.40;;;;;;5054985;28;20772;-43
2022/08/25 11:12:56;;;;;;;15.43;7.17;;;30.70;46.60;;;;;;5054535;28;20986;-43
2022/08/25 11:15:39;;;;;;;14.93;8.10;;;30.80;45.50;;;;;;5054508;28;20411;-43
2022/08/25 11:18:12;;;;;;;14.33;9.47;;;31.00;45.70;;;;;;5054483;28;20399;-43
2022/08/25 11:21:08;;;;;;;12.60;7.97;;;31.10;45.80;;;;;;5054420;28;20407;-43
2022/08/25 11:24:04;;;;;;;13.87;7.60;;;31.20;46.00;;;;;;5054253;28;20600;-43
2022/08/25 11:26:33;;;;;;;12.17;7.67;;;31.40;45.60;;;;;;5054603;28;20391;-43
2022/08/25 11:29:17;;;;;;;18.80;6.90;;;31.50;45.10;;;;;;5054355;28;20451;-44
2022/08/25 11:31:48;;;;;;;15.87;8.60;;;31.60;45.20;;;;;;5054307;28;20456;-44
2022/08/25 11:34:14;;;;;;;12.67;7.00;;;31.70;44.70;;;;;;5036373;28;20489;-43
2022/08/25 11:36:51;;;;;;;14.13;6.10;;;31.80;44.10;;;;;;5054547;28;20490;-44
2022/08/25 11:39:17;;;;;;;23.93;7.37;;;32.00;44.40;;;;;;4983551;23;20499;-44
2022/08/25 11:41:48;;;;;;;15.50;6.30;;;32.00;44.10;;;;;;4991497;28;20845;-42
2022/08/25 11:44:51;;;;;;;11.80;5.47;;;32.00;43.50;;;;;;4991325;28;20182;-42
2022/08/25 11:47:35;;;;;;;12.67;6.97;;;31.90;41.90;;;;;;4991017;28;20381;-43
2022/08/25 11:50:07;;;;;;;13.30;8.00;;;31.70;42.60;;;;;;4991235;28;20734;-43
2022/08/25 11:52:33;;;;;;;13.80;6.10;;;31.60;42.30;;;;;;4991200;28;20446;-42
2022/08/25 11:55:15;;;;;;;17.13;6.67;;;31.40;42.60;;;;;;4991385;28;20425;-43
2022/08/25 11:57:44;;;;;;;17.83;7.17;;;31.40;42.80;;;;;;4991177;28;20190;-43
2022/08/25 12:00:18;;;;;;;16.40;8.83;;;31.40;42.90;;;;;;4990988;28;20502;-42
2022/08/25 12:02:44;;;;;;;13.30;6.23;;;31.50;43.60;;;;;;4991256;28;20410;-44
2022/08/25 12:05:31;;;;;;;8.70;6.43;;;31.70;43.50;;;;;;4990958;28;20410;-45
2022/08/25 12:11:02;;;;;;;16.37;7.10;;;32.00;43.70;;;;;;4990794;28;20418;-44
2022/08/25 12:13:44;;;;;;;9.90;6.00;;;32.10;42.00;;;;;;4990874;28;21069;-44
2022/08/25 12:16:31;;;;;;;12.03;6.60;;;32.20;41.80;;;;;;4990555;28;20495;-41
2022/08/25 12:19:22;;;;;;;17.80;7.07;;;32.30;41.40;;;;;;4990678;28;20430;-43
2022/08/25 12:21:49;;;;;;;12.97;7.90;;;32.40;40.90;;;;;;4990706;28;20415;-44
2022/08/25 12:24:20;;;;;;;8.67;6.53;;;32.30;40.30;;;;;;4990656;28;20414;-43
2022/08/25 12:26:56;;;;;;;9.50;6.83;;;32.30;40.70;;;;;;4990508;28;20417;-43
2022/08/25 12:29:38;;;;;;;10.77;6.53;;;32.40;40.70;;;;;;4990529;28;20429;-42
2022/08/25 12:32:25;;;;;;;16.67;5.73;;;32.50;40.40;;;;;;4990511;28;20453;-42
2022/08/25 12:35:14;;;;;;;11.10;7.07;;;32.60;39.20;;;;;;4990493;28;20894;-43
2022/08/25 12:38:00;;;;;;;16.57;6.20;;;32.60;39.90;;;;;;4990116;28;20945;-42
2022/08/25 12:41:10;;;;;;;13.63;6.80;;;32.70;39.70;;;;;;4990470;28;20395;-43
2022/08/25 12:43:39;;;;;;;15.17;6.13;;;32.90;39.10;;;;;;4953311;28;20467;-42
2022/08/25 12:46:20;;;;;;;31.13;8.43;;;32.90;38.90;;;;;;4990229;28;20857;-44
2022/08/25 12:48:52;;;;;;;10.63;5.70;;;33.00;38.60;;;;;;4990759;28;20827;-43
2022/08/25 12:51:20;;;;;;;9.40;6.03;;;33.10;38.60;;;;;;4990271;28;20545;-45
2022/08/25 12:53:48;;;;;;;18.33;6.40;;;33.20;39.20;;;;;;4990251;28;20898;-42
2022/08/25 12:56:20;;;;;;;13.23;7.33;;;33.30;39.40;;;;;;4989994;28;20415;-42
2022/08/25 12:59:00;;;;;;;13.77;6.00;;;33.50;39.20;;;;;;4989994;28;20445;-43
2022/08/25 13:01:42;;;;;;;20.90;6.70;;;33.50;39.00;;;;;;4990440;28;20414;-44
2022/08/25 13:04:23;;;;;;;9.90;6.60;;;33.70;38.70;;;;;;4990172;28;20416;-42
2022/08/25 13:06:58;;;;;;;11.67;6.70;;;33.70;38.80;;;;;;4989865;28;20490;-41